Terminal Aerodrome Forecast
Issued by NWS Nashville, TN

Home | Current Version | Previous Version | Text Only | Print | Product List | Glossary On
Versions: 1 2 3 4 5 6 7 8 9 10 11 12 13 14 15 16 17 18 19 20 21
000
FTUS44 KOHX 301100
TAFCSV
TAF
KCSV 301139Z 3012/3112 17004KT P6SM BKN250
     FM301800 19006KT P6SM BKN070
     FM302100 18007KT P6SM VCTS OVC050CB
     FM310100 17005KT 4SM TSRA BR OVC025CB
     FM310600 18003KT 3SM BR VCSH BKN030=

USA.gov is the U.S. government's official web portal to all federal, state and local government web resources and services.